sensor_id;sensor_type;location;lat;lon;timestamp;P1;durP1;ratioP1;P2;durP2;ratioP2
51184;SDS011;37248;59.350;18.050;2022-11-14T00:02:05;28.90;;;14.90;;
51184;SDS011;37248;59.350;18.050;2022-11-14T00:04:30;33.17;;;15.10;;
51184;SDS011;37248;59.350;18.050;2022-11-14T00:06:55;28.57;;;14.77;;
51184;SDS011;37248;59.350;18.050;2022-11-14T00:09:27;25.47;;;14.70;;
51184;SDS011;37248;59.350;18.050;2022-11-14T00:11:52;26.35;;;14.77;;
51184;SDS011;37248;59.350;18.050;2022-11-14T00:14:18;25.77;;;14.60;;
51184;SDS011;37248;59.350;18.050;2022-11-14T00:16:43;26.40;;;14.87;;
51184;SDS011;37248;59.350;18.050;2022-11-14T00:19:08;30.27;;;14.20;;
51184;SDS011;37248;59.350;18.050;2022-11-14T00:21:33;24.50;;;14.63;;
51184;SDS011;37248;59.350;18.050;2022-11-14T00:23:59;23.67;;;13.73;;
51184;SDS011;37248;59.350;18.050;2022-11-14T00:26:24;25.90;;;14.83;;
51184;SDS011;37248;59.350;18.050;2022-11-14T00:28:49;22.47;;;13.73;;
51184;SDS011;37248;59.350;18.050;2022-11-14T00:31:14;25.10;;;14.03;;
51184;SDS011;37248;59.350;18.050;2022-11-14T00:33:40;22.23;;;13.67;;
51184;SDS011;37248;59.350;18.050;2022-11-14T00:36:05;23.87;;;14.40;;
51184;SDS011;37248;59.350;18.050;2022-11-14T00:38:30;23.40;;;13.70;;
51184;SDS011;37248;59.350;18.050;2022-11-14T00:40:55;24.07;;;13.50;;
51184;SDS011;37248;59.350;18.050;2022-11-14T00:43:20;23.00;;;14.00;;
51184;SDS011;37248;59.350;18.050;2022-11-14T00:45:46;21.30;;;13.60;;
51184;SDS011;37248;59.350;18.050;2022-11-14T00:48:11;21.30;;;13.82;;
51184;SDS011;37248;59.350;18.050;2022-11-14T00:50:37;22.73;;;13.30;;
51184;SDS011;37248;59.350;18.050;2022-11-14T00:53:02;20.63;;;13.60;;
51184;SDS011;37248;59.350;18.050;2022-11-14T00:55:27;21.73;;;13.02;;
51184;SDS011;37248;59.350;18.050;2022-11-14T00:57:53;25.53;;;13.60;;
51184;SDS011;37248;59.350;18.050;2022-11-14T01:00:18;23.20;;;13.30;;
51184;SDS011;37248;59.350;18.050;2022-11-14T01:02:43;22.83;;;14.37;;
51184;SDS011;37248;59.350;18.050;2022-11-14T01:05:09;20.67;;;12.93;;
51184;SDS011;37248;59.350;18.050;2022-11-14T01:07:34;23.10;;;13.60;;
51184;SDS011;37248;59.350;18.050;2022-11-14T01:09:59;22.27;;;13.30;;
51184;SDS011;37248;59.350;18.050;2022-11-14T01:12:24;20.73;;;13.73;;
51184;SDS011;37248;59.350;18.050;2022-11-14T01:14:49;23.73;;;13.37;;
51184;SDS011;37248;59.350;18.050;2022-11-14T01:17:15;18.73;;;13.00;;
51184;SDS011;37248;59.350;18.050;2022-11-14T01:19:40;24.70;;;13.10;;
51184;SDS011;37248;59.350;18.050;2022-11-14T01:22:05;20.63;;;12.70;;
51184;SDS011;37248;59.350;18.050;2022-11-14T01:24:31;19.67;;;12.83;;
51184;SDS011;37248;59.350;18.050;2022-11-14T01:26:56;20.58;;;13.05;;
51184;SDS011;37248;59.350;18.050;2022-11-14T01:29:21;20.40;;;12.80;;
51184;SDS011;37248;59.350;18.050;2022-11-14T01:31:47;18.77;;;12.63;;
51184;SDS011;37248;59.350;18.050;2022-11-14T01:34:12;24.90;;;13.50;;
51184;SDS011;37248;59.350;18.050;2022-11-14T01:36:37;24.07;;;14.00;;
51184;SDS011;37248;59.350;18.050;2022-11-14T01:39:03;20.37;;;13.70;;
51184;SDS011;37248;59.350;18.050;2022-11-14T01:41:28;20.17;;;12.60;;
51184;SDS011;37248;59.350;18.050;2022-11-14T01:43:53;20.40;;;12.63;;
51184;SDS011;37248;59.350;18.050;2022-11-14T01:46:21;19.27;;;12.80;;
51184;SDS011;37248;59.350;18.050;2022-11-14T01:48:51;20.40;;;12.63;;
51184;SDS011;37248;59.350;18.050;2022-11-14T01:51:19;19.00;;;12.70;;
51184;SDS011;37248;59.350;18.050;2022-11-14T01:53:46;18.48;;;12.50;;
51184;SDS011;37248;59.350;18.050;2022-11-14T01:56:14;21.88;;;12.80;;
51184;SDS011;37248;59.350;18.050;2022-11-14T01:58:41;20.02;;;13.23;;
51184;SDS011;37248;59.350;18.050;2022-11-14T02:01:07;19.25;;;12.10;;
51184;SDS011;37248;59.350;18.050;2022-11-14T02:03:34;19.67;;;12.70;;
51184;SDS011;37248;59.350;18.050;2022-11-14T02:06:00;18.17;;;12.07;;
51184;SDS011;37248;59.350;18.050;2022-11-14T02:08:25;21.70;;;12.68;;
51184;SDS011;37248;59.350;18.050;2022-11-14T02:10:51;17.07;;;11.90;;
51184;SDS011;37248;59.350;18.050;2022-11-14T02:13:16;17.47;;;12.73;;
51184;SDS011;37248;59.350;18.050;2022-11-14T02:15:41;21.40;;;12.63;;
51184;SDS011;37248;59.350;18.050;2022-11-14T02:18:06;20.67;;;13.00;;
51184;SDS011;37248;59.350;18.050;2022-11-14T02:20:33;19.80;;;12.70;;
51184;SDS011;37248;59.350;18.050;2022-11-14T02:22:59;19.08;;;12.80;;
51184;SDS011;37248;59.350;18.050;2022-11-14T02:25:25;19.73;;;13.10;;
51184;SDS011;37248;59.350;18.050;2022-11-14T02:27:50;16.50;;;12.27;;
51184;SDS011;37248;59.350;18.050;2022-11-14T02:30:17;19.93;;;12.93;;
51184;SDS011;37248;59.350;18.050;2022-11-14T02:32:43;16.17;;;12.30;;
51184;SDS011;37248;59.350;18.050;2022-11-14T02:35:08;18.30;;;12.77;;
51184;SDS011;37248;59.350;18.050;2022-11-14T02:37:33;19.10;;;13.25;;
51184;SDS011;37248;59.350;18.050;2022-11-14T02:39:58;18.03;;;13.00;;
51184;SDS011;37248;59.350;18.050;2022-11-14T02:42:24;24.47;;;12.97;;
51184;SDS011;37248;59.350;18.050;2022-11-14T02:44:49;17.63;;;12.67;;
51184;SDS011;37248;59.350;18.050;2022-11-14T02:47:14;17.93;;;11.97;;
51184;SDS011;37248;59.350;18.050;2022-11-14T02:49:39;19.23;;;11.90;;
51184;SDS011;37248;59.350;18.050;2022-11-14T02:52:05;19.37;;;12.33;;
51184;SDS011;37248;59.350;18.050;2022-11-14T02:54:30;20.07;;;12.83;;
51184;SDS011;37248;59.350;18.050;2022-11-14T02:56:55;18.80;;;13.10;;
51184;SDS011;37248;59.350;18.050;2022-11-14T02:59:20;20.07;;;11.87;;
51184;SDS011;37248;59.350;18.050;2022-11-14T03:01:46;20.00;;;13.13;;
51184;SDS011;37248;59.350;18.050;2022-11-14T03:04:11;22.83;;;12.82;;
51184;SDS011;37248;59.350;18.050;2022-11-14T03:06:36;20.37;;;13.20;;
51184;SDS011;37248;59.350;18.050;2022-11-14T03:09:02;21.05;;;12.63;;
51184;SDS011;37248;59.350;18.050;2022-11-14T03:11:27;19.23;;;12.80;;
51184;SDS011;37248;59.350;18.050;2022-11-14T03:13:52;18.20;;;12.57;;
51184;SDS011;37248;59.350;18.050;2022-11-14T03:16:18;19.70;;;11.47;;
51184;SDS011;37248;59.350;18.050;2022-11-14T03:18:43;19.60;;;12.70;;
51184;SDS011;37248;59.350;18.050;2022-11-14T03:21:19;19.67;;;12.13;;
51184;SDS011;37248;59.350;18.050;2022-11-14T03:23:44;20.13;;;12.23;;
51184;SDS011;37248;59.350;18.050;2022-11-14T03:26:10;23.23;;;12.90;;
51184;SDS011;37248;59.350;18.050;2022-11-14T03:28:36;22.42;;;12.18;;
51184;SDS011;37248;59.350;18.050;2022-11-14T03:31:02;25.92;;;13.57;;
51184;SDS011;37248;59.350;18.050;2022-11-14T03:33:27;20.87;;;12.47;;
51184;SDS011;37248;59.350;18.050;2022-11-14T03:35:53;17.48;;;11.77;;
51184;SDS011;37248;59.350;18.050;2022-11-14T03:38:18;19.40;;;11.97;;
51184;SDS011;37248;59.350;18.050;2022-11-14T03:40:47;20.25;;;12.00;;
51184;SDS011;37248;59.350;18.050;2022-11-14T03:43:12;18.10;;;12.43;;
51184;SDS011;37248;59.350;18.050;2022-11-14T03:45:37;21.40;;;12.30;;
51184;SDS011;37248;59.350;18.050;2022-11-14T03:48:03;20.03;;;12.60;;
51184;SDS011;37248;59.350;18.050;2022-11-14T03:50:29;19.70;;;12.60;;
51184;SDS011;37248;59.350;18.050;2022-11-14T03:52:54;20.77;;;12.87;;
51184;SDS011;37248;59.350;18.050;2022-11-14T03:55:19;18.70;;;12.27;;
51184;SDS011;37248;59.350;18.050;2022-11-14T03:57:44;17.03;;;12.07;;
51184;SDS011;37248;59.350;18.050;2022-11-14T04:00:10;18.53;;;12.20;;
51184;SDS011;37248;59.350;18.050;2022-11-14T04:02:35;17.90;;;12.10;;
51184;SDS011;37248;59.350;18.050;2022-11-14T04:05:00;21.35;;;12.63;;
51184;SDS011;37248;59.350;18.050;2022-11-14T04:07:26;17.60;;;12.83;;
51184;SDS011;37248;59.350;18.050;2022-11-14T04:09:51;16.63;;;12.10;;
51184;SDS011;37248;59.350;18.050;2022-11-14T04:12:16;19.43;;;12.47;;
51184;SDS011;37248;59.350;18.050;2022-11-14T04:14:42;16.37;;;11.90;;
51184;SDS011;37248;59.350;18.050;2022-11-14T04:17:07;16.97;;;12.20;;
51184;SDS011;37248;59.350;18.050;2022-11-14T04:19:32;20.23;;;12.03;;
51184;SDS011;37248;59.350;18.050;2022-11-14T04:21:57;15.73;;;12.07;;
51184;SDS011;37248;59.350;18.050;2022-11-14T04:24:23;17.50;;;12.27;;
51184;SDS011;37248;59.350;18.050;2022-11-14T04:26:48;19.90;;;12.60;;
51184;SDS011;37248;59.350;18.050;2022-11-14T04:29:13;20.77;;;13.00;;
51184;SDS011;37248;59.350;18.050;2022-11-14T04:31:38;17.98;;;12.77;;
51184;SDS011;37248;59.350;18.050;2022-11-14T04:34:03;19.30;;;12.83;;
51184;SDS011;37248;59.350;18.050;2022-11-14T04:36:29;23.13;;;12.40;;
51184;SDS011;37248;59.350;18.050;2022-11-14T04:38:54;19.50;;;12.40;;
51184;SDS011;37248;59.350;18.050;2022-11-14T04:41:19;27.10;;;12.03;;
51184;SDS011;37248;59.350;18.050;2022-11-14T04:43:44;20.57;;;13.53;;
51184;SDS011;37248;59.350;18.050;2022-11-14T04:46:10;19.20;;;12.13;;
51184;SDS011;37248;59.350;18.050;2022-11-14T04:48:35;26.60;;;12.07;;
51184;SDS011;37248;59.350;18.050;2022-11-14T04:51:00;23.43;;;11.87;;
51184;SDS011;37248;59.350;18.050;2022-11-14T04:53:25;28.87;;;13.53;;
51184;SDS011;37248;59.350;18.050;2022-11-14T04:55:51;31.60;;;12.93;;
51184;SDS011;37248;59.350;18.050;2022-11-14T04:58:16;23.03;;;12.97;;
51184;SDS011;37248;59.350;18.050;2022-11-14T05:00:41;27.30;;;12.70;;
51184;SDS011;37248;59.350;18.050;2022-11-14T05:03:07;30.73;;;13.80;;
51184;SDS011;37248;59.350;18.050;2022-11-14T05:05:32;28.23;;;13.35;;
51184;SDS011;37248;59.350;18.050;2022-11-14T05:07:57;23.70;;;13.00;;
51184;SDS011;37248;59.350;18.050;2022-11-14T05:10:23;28.10;;;13.00;;
51184;SDS011;37248;59.350;18.050;2022-11-14T05:12:51;27.87;;;12.97;;
51184;SDS011;37248;59.350;18.050;2022-11-14T05:15:16;23.80;;;12.23;;
51184;SDS011;37248;59.350;18.050;2022-11-14T05:17:42;27.90;;;13.10;;
51184;SDS011;37248;59.350;18.050;2022-11-14T05:20:07;25.67;;;12.97;;
51184;SDS011;37248;59.350;18.050;2022-11-14T05:22:33;19.30;;;12.57;;
51184;SDS011;37248;59.350;18.050;2022-11-14T05:24:58;22.70;;;13.07;;
51184;SDS011;37248;59.350;18.050;2022-11-14T05:27:23;26.77;;;12.80;;
51184;SDS011;37248;59.350;18.050;2022-11-14T05:29:49;28.43;;;12.60;;
51184;SDS011;37248;59.350;18.050;2022-11-14T05:32:14;24.07;;;13.20;;
51184;SDS011;37248;59.350;18.050;2022-11-14T05:34:40;25.07;;;12.83;;
51184;SDS011;37248;59.350;18.050;2022-11-14T05:37:05;24.43;;;12.50;;
51184;SDS011;37248;59.350;18.050;2022-11-14T05:39:32;21.90;;;12.68;;
51184;SDS011;37248;59.350;18.050;2022-11-14T05:41:57;20.50;;;12.13;;
51184;SDS011;37248;59.350;18.050;2022-11-14T05:44:22;22.13;;;12.20;;
51184;SDS011;37248;59.350;18.050;2022-11-14T05:46:48;23.27;;;12.30;;
51184;SDS011;37248;59.350;18.050;2022-11-14T05:49:13;27.17;;;12.67;;
51184;SDS011;37248;59.350;18.050;2022-11-14T05:51:38;22.07;;;13.43;;
51184;SDS011;37248;59.350;18.050;2022-11-14T05:54:03;21.17;;;12.53;;
51184;SDS011;37248;59.350;18.050;2022-11-14T05:56:29;22.67;;;12.17;;
51184;SDS011;37248;59.350;18.050;2022-11-14T05:58:54;25.47;;;12.80;;
51184;SDS011;37248;59.350;18.050;2022-11-14T06:01:19;20.30;;;12.40;;
51184;SDS011;37248;59.350;18.050;2022-11-14T06:03:45;17.17;;;12.53;;
51184;SDS011;37248;59.350;18.050;2022-11-14T06:06:12;19.33;;;13.05;;
51184;SDS011;37248;59.350;18.050;2022-11-14T06:08:38;23.20;;;12.82;;
51184;SDS011;37248;59.350;18.050;2022-11-14T06:11:05;20.13;;;12.17;;
51184;SDS011;37248;59.350;18.050;2022-11-14T06:13:31;18.70;;;12.55;;
51184;SDS011;37248;59.350;18.050;2022-11-14T06:16:00;18.52;;;12.30;;
51184;SDS011;37248;59.350;18.050;2022-11-14T06:18:26;18.47;;;12.50;;
51184;SDS011;37248;59.350;18.050;2022-11-14T06:20:51;17.17;;;12.60;;
51184;SDS011;37248;59.350;18.050;2022-11-14T06:23:16;21.13;;;13.40;;
51184;SDS011;37248;59.350;18.050;2022-11-14T06:25:42;17.57;;;12.40;;
51184;SDS011;37248;59.350;18.050;2022-11-14T06:28:07;19.73;;;12.60;;
51184;SDS011;37248;59.350;18.050;2022-11-14T06:30:32;24.47;;;12.57;;
51184;SDS011;37248;59.350;18.050;2022-11-14T06:32:57;20.13;;;11.97;;
51184;SDS011;37248;59.350;18.050;2022-11-14T06:35:26;17.42;;;11.25;;
51184;SDS011;37248;59.350;18.050;2022-11-14T06:37:51;24.00;;;12.10;;
51184;SDS011;37248;59.350;18.050;2022-11-14T06:40:16;31.33;;;12.50;;
51184;SDS011;37248;59.350;18.050;2022-11-14T06:42:41;25.83;;;11.97;;
51184;SDS011;37248;59.350;18.050;2022-11-14T06:45:07;21.30;;;12.20;;
51184;SDS011;37248;59.350;18.050;2022-11-14T06:47:32;23.77;;;11.38;;
51184;SDS011;37248;59.350;18.050;2022-11-14T06:49:57;24.40;;;11.87;;
51184;SDS011;37248;59.350;18.050;2022-11-14T06:52:23;30.42;;;12.50;;
51184;SDS011;37248;59.350;18.050;2022-11-14T06:54:49;25.42;;;12.13;;
51184;SDS011;37248;59.350;18.050;2022-11-14T06:57:15;19.63;;;11.20;;
51184;SDS011;37248;59.350;18.050;2022-11-14T06:59:40;23.23;;;11.07;;
51184;SDS011;37248;59.350;18.050;2022-11-14T07:02:05;30.67;;;11.50;;
51184;SDS011;37248;59.350;18.050;2022-11-14T07:04:30;25.77;;;11.97;;
51184;SDS011;37248;59.350;18.050;2022-11-14T07:06:56;30.53;;;11.87;;
51184;SDS011;37248;59.350;18.050;2022-11-14T07:09:21;39.80;;;12.93;;
51184;SDS011;37248;59.350;18.050;2022-11-14T07:11:46;27.47;;;12.20;;
51184;SDS011;37248;59.350;18.050;2022-11-14T07:14:11;29.93;;;11.53;;
51184;SDS011;37248;59.350;18.050;2022-11-14T07:16:37;27.87;;;11.13;;
51184;SDS011;37248;59.350;18.050;2022-11-14T07:19:04;22.33;;;10.77;;
51184;SDS011;37248;59.350;18.050;2022-11-14T07:21:30;22.52;;;11.20;;
51184;SDS011;37248;59.350;18.050;2022-11-14T07:23:56;27.50;;;10.90;;
51184;SDS011;37248;59.350;18.050;2022-11-14T07:26:21;24.13;;;10.63;;
51184;SDS011;37248;59.350;18.050;2022-11-14T07:28:46;23.27;;;10.47;;
51184;SDS011;37248;59.350;18.050;2022-11-14T07:31:12;26.70;;;10.63;;
51184;SDS011;37248;59.350;18.050;2022-11-14T07:33:38;18.58;;;10.30;;
51184;SDS011;37248;59.350;18.050;2022-11-14T07:36:04;18.73;;;10.05;;
51184;SDS011;37248;59.350;18.050;2022-11-14T07:38:30;15.90;;;10.20;;
51184;SDS011;37248;59.350;18.050;2022-11-14T07:41:03;23.45;;;10.20;;
51184;SDS011;37248;59.350;18.050;2022-11-14T07:43:28;20.10;;;9.48;;
51184;SDS011;37248;59.350;18.050;2022-11-14T07:46:00;15.23;;;9.20;;
51184;SDS011;37248;59.350;18.050;2022-11-14T07:48:26;20.93;;;9.47;;
51184;SDS011;37248;59.350;18.050;2022-11-14T07:50:51;19.52;;;9.43;;
51184;SDS011;37248;59.350;18.050;2022-11-14T07:53:17;20.23;;;10.00;;
51184;SDS011;37248;59.350;18.050;2022-11-14T07:55:42;15.27;;;9.30;;
51184;SDS011;37248;59.350;18.050;2022-11-14T07:58:08;15.23;;;8.93;;
51184;SDS011;37248;59.350;18.050;2022-11-14T08:00:33;14.67;;;8.97;;
51184;SDS011;37248;59.350;18.050;2022-11-14T08:02:58;13.23;;;9.27;;
51184;SDS011;37248;59.350;18.050;2022-11-14T08:05:23;16.30;;;9.07;;
51184;SDS011;37248;59.350;18.050;2022-11-14T08:07:52;15.52;;;9.30;;
51184;SDS011;37248;59.350;18.050;2022-11-14T08:10:18;15.23;;;9.27;;
51184;SDS011;37248;59.350;18.050;2022-11-14T08:12:43;14.88;;;9.00;;
51184;SDS011;37248;59.350;18.050;2022-11-14T08:15:09;14.00;;;9.18;;
51184;SDS011;37248;59.350;18.050;2022-11-14T08:17:35;14.47;;;8.90;;
51184;SDS011;37248;59.350;18.050;2022-11-14T08:20:00;11.73;;;8.07;;
51184;SDS011;37248;59.350;18.050;2022-11-14T08:22:26;12.98;;;9.07;;
51184;SDS011;37248;59.350;18.050;2022-11-14T08:24:51;11.40;;;8.23;;
51184;SDS011;37248;59.350;18.050;2022-11-14T08:27:17;10.40;;;7.87;;
51184;SDS011;37248;59.350;18.050;2022-11-14T08:29:42;9.85;;;7.85;;
51184;SDS011;37248;59.350;18.050;2022-11-14T08:32:07;14.03;;;8.87;;
51184;SDS011;37248;59.350;18.050;2022-11-14T08:34:33;10.68;;;8.20;;
51184;SDS011;37248;59.350;18.050;2022-11-14T08:37:00;12.40;;;8.20;;
51184;SDS011;37248;59.350;18.050;2022-11-14T08:39:25;11.33;;;8.10;;
51184;SDS011;37248;59.350;18.050;2022-11-14T08:41:50;11.13;;;7.78;;
51184;SDS011;37248;59.350;18.050;2022-11-14T08:44:16;14.30;;;8.60;;
51184;SDS011;37248;59.350;18.050;2022-11-14T08:46:41;8.90;;;7.60;;
51184;SDS011;37248;59.350;18.050;2022-11-14T08:49:06;11.27;;;7.67;;
51184;SDS011;37248;59.350;18.050;2022-11-14T08:51:31;12.37;;;7.70;;
51184;SDS011;37248;59.350;18.050;2022-11-14T08:53:56;15.80;;;7.50;;
51184;SDS011;37248;59.350;18.050;2022-11-14T08:56:22;15.97;;;8.30;;
51184;SDS011;37248;59.350;18.050;2022-11-14T08:58:47;21.70;;;8.37;;
51184;SDS011;37248;59.350;18.050;2022-11-14T09:01:12;15.13;;;7.27;;
51184;SDS011;37248;59.350;18.050;2022-11-14T09:03:37;12.40;;;7.67;;
51184;SDS011;37248;59.350;18.050;2022-11-14T09:06:03;16.30;;;7.53;;
51184;SDS011;37248;59.350;18.050;2022-11-14T09:08:28;13.27;;;7.90;;
51184;SDS011;37248;59.350;18.050;2022-11-14T09:10:54;13.63;;;7.90;;
51184;SDS011;37248;59.350;18.050;2022-11-14T09:13:19;16.00;;;7.73;;
51184;SDS011;37248;59.350;18.050;2022-11-14T09:15:44;13.60;;;7.67;;
51184;SDS011;37248;59.350;18.050;2022-11-14T09:18:10;10.43;;;6.77;;
51184;SDS011;37248;59.350;18.050;2022-11-14T09:20:35;11.23;;;7.30;;
51184;SDS011;37248;59.350;18.050;2022-11-14T09:23:00;11.43;;;7.10;;
51184;SDS011;37248;59.350;18.050;2022-11-14T09:25:26;12.93;;;7.75;;
51184;SDS011;37248;59.350;18.050;2022-11-14T09:27:52;12.40;;;7.15;;
51184;SDS011;37248;59.350;18.050;2022-11-14T09:30:17;11.18;;;7.00;;
51184;SDS011;37248;59.350;18.050;2022-11-14T09:32:42;12.57;;;7.17;;
51184;SDS011;37248;59.350;18.050;2022-11-14T09:35:08;11.60;;;6.97;;
51184;SDS011;37248;59.350;18.050;2022-11-14T09:37:33;10.23;;;6.73;;
51184;SDS011;37248;59.350;18.050;2022-11-14T09:39:58;9.40;;;6.80;;
51184;SDS011;37248;59.350;18.050;2022-11-14T09:44:56;9.20;;;7.13;;
51184;SDS011;37248;59.350;18.050;2022-11-14T09:47:26;9.57;;;6.83;;
51184;SDS011;37248;59.350;18.050;2022-11-14T09:49:53;8.30;;;6.85;;
51184;SDS011;37248;59.350;18.050;2022-11-14T09:52:35;10.90;;;6.83;;
51184;SDS011;37248;59.350;18.050;2022-11-14T09:57:41;13.27;;;6.93;;
51184;SDS011;37248;59.350;18.050;2022-11-14T10:02:49;9.65;;;6.43;;
51184;SDS011;37248;59.350;18.050;2022-11-14T10:12:57;8.52;;;6.90;;
51184;SDS011;37248;59.350;18.050;2022-11-14T10:20:38;13.13;;;6.60;;
51184;SDS011;37248;59.350;18.050;2022-11-14T10:31:06;9.80;;;6.90;;
51184;SDS011;37248;59.350;18.050;2022-11-14T10:33:46;11.60;;;6.93;;
51184;SDS011;37248;59.350;18.050;2022-11-14T10:36:20;11.43;;;6.80;;
51184;SDS011;37248;59.350;18.050;2022-11-14T10:41:38;11.90;;;7.13;;
51184;SDS011;37248;59.350;18.050;2022-11-14T10:44:07;19.38;;;7.50;;
51184;SDS011;37248;59.350;18.050;2022-11-14T10:46:38;14.32;;;6.88;;
51184;SDS011;37248;59.350;18.050;2022-11-14T10:52:01;19.10;;;7.28;;
51184;SDS011;37248;59.350;18.050;2022-11-14T10:57:12;15.52;;;6.72;;
51184;SDS011;37248;59.350;18.050;2022-11-14T10:59:38;16.98;;;6.75;;
51184;SDS011;37248;59.350;18.050;2022-11-14T11:02:04;12.20;;;6.83;;
51184;SDS011;37248;59.350;18.050;2022-11-14T11:04:33;14.20;;;7.10;;
51184;SDS011;37248;59.350;18.050;2022-11-14T11:09:32;9.68;;;6.13;;
51184;SDS011;37248;59.350;18.050;2022-11-14T11:12:22;10.80;;;6.63;;
51184;SDS011;37248;59.350;18.050;2022-11-14T11:14:48;13.85;;;6.15;;
51184;SDS011;37248;59.350;18.050;2022-11-14T11:17:15;10.53;;;6.50;;
51184;SDS011;37248;59.350;18.050;2022-11-14T11:19:43;11.50;;;6.28;;
51184;SDS011;37248;59.350;18.050;2022-11-14T11:24:51;9.87;;;6.43;;
51184;SDS011;37248;59.350;18.050;2022-11-14T11:27:27;9.33;;;6.60;;
51184;SDS011;37248;59.350;18.050;2022-11-14T11:32:30;8.60;;;6.35;;
51184;SDS011;37248;59.350;18.050;2022-11-14T11:34:56;8.50;;;6.50;;
51184;SDS011;37248;59.350;18.050;2022-11-14T11:37:26;6.72;;;5.68;;
51184;SDS011;37248;59.350;18.050;2022-11-14T11:39:56;6.38;;;5.72;;
51184;SDS011;37248;59.350;18.050;2022-11-14T11:45:09;10.02;;;6.00;;
51184;SDS011;37248;59.350;18.050;2022-11-14T11:47:37;7.20;;;6.18;;
51184;SDS011;37248;59.350;18.050;2022-11-14T11:50:03;7.28;;;6.00;;
51184;SDS011;37248;59.350;18.050;2022-11-14T11:57:22;7.53;;;5.80;;
51184;SDS011;37248;59.350;18.050;2022-11-14T11:59:50;9.20;;;6.10;;
51184;SDS011;37248;59.350;18.050;2022-11-14T12:02:25;7.25;;;6.38;;
51184;SDS011;37248;59.350;18.050;2022-11-14T12:04:51;7.85;;;6.18;;
51184;SDS011;37248;59.350;18.050;2022-11-14T12:07:18;8.32;;;5.80;;
51184;SDS011;37248;59.350;18.050;2022-11-14T12:09:43;6.85;;;6.15;;
51184;SDS011;37248;59.350;18.050;2022-11-14T12:12:13;7.93;;;5.80;;
51184;SDS011;37248;59.350;18.050;2022-11-14T12:22:51;7.97;;;6.30;;
51184;SDS011;37248;59.350;18.050;2022-11-14T12:30:22;7.47;;;5.70;;
51184;SDS011;37248;59.350;18.050;2022-11-14T12:32:56;6.72;;;6.03;;
51184;SDS011;37248;59.350;18.050;2022-11-14T12:35:26;6.70;;;5.97;;
51184;SDS011;37248;59.350;18.050;2022-11-14T12:37:53;6.90;;;5.68;;
51184;SDS011;37248;59.350;18.050;2022-11-14T12:42:51;7.03;;;5.95;;
51184;SDS011;37248;59.350;18.050;2022-11-14T12:50:43;16.80;;;6.03;;
51184;SDS011;37248;59.350;18.050;2022-11-14T12:53:35;12.60;;;6.30;;
51184;SDS011;37248;59.350;18.050;2022-11-14T13:06:09;64.43;;;12.60;;
51184;SDS011;37248;59.350;18.050;2022-11-14T13:14:17;55.92;;;11.35;;
51184;SDS011;37248;59.350;18.050;2022-11-14T13:19:58;60.17;;;12.40;;
51184;SDS011;37248;59.350;18.050;2022-11-14T13:22:42;45.38;;;10.60;;
51184;SDS011;37248;59.350;18.050;2022-11-14T13:25:15;47.17;;;10.68;;
51184;SDS011;37248;59.350;18.050;2022-11-14T13:27:41;52.40;;;10.73;;
51184;SDS011;37248;59.350;18.050;2022-11-14T13:30:06;56.30;;;10.57;;
51184;SDS011;37248;59.350;18.050;2022-11-14T13:35:51;42.60;;;10.17;;
51184;SDS011;37248;59.350;18.050;2022-11-14T13:43:09;41.55;;;10.30;;
51184;SDS011;37248;59.350;18.050;2022-11-14T13:45:56;37.42;;;9.60;;
51184;SDS011;37248;59.350;18.050;2022-11-14T13:50:49;29.93;;;9.60;;
51184;SDS011;37248;59.350;18.050;2022-11-14T13:53:16;35.55;;;9.80;;
51184;SDS011;37248;59.350;18.050;2022-11-14T14:11:24;30.23;;;8.27;;
51184;SDS011;37248;59.350;18.050;2022-11-14T14:16:20;21.67;;;7.70;;
51184;SDS011;37248;59.350;18.050;2022-11-14T14:18:58;19.17;;;7.70;;
51184;SDS011;37248;59.350;18.050;2022-11-14T14:31:39;20.60;;;7.93;;
51184;SDS011;37248;59.350;18.050;2022-11-14T14:34:26;13.27;;;7.90;;
51184;SDS011;37248;59.350;18.050;2022-11-14T14:36:53;13.60;;;7.87;;
51184;SDS011;37248;59.350;18.050;2022-11-14T14:41:44;16.43;;;7.27;;
51184;SDS011;37248;59.350;18.050;2022-11-14T14:44:23;16.17;;;7.77;;
51184;SDS011;37248;59.350;18.050;2022-11-14T14:46:49;12.45;;;7.65;;
51184;SDS011;37248;59.350;18.050;2022-11-14T14:49:22;14.85;;;8.00;;
51184;SDS011;37248;59.350;18.050;2022-11-14T14:51:49;14.85;;;7.63;;
51184;SDS011;37248;59.350;18.050;2022-11-14T14:54:18;18.55;;;7.68;;
51184;SDS011;37248;59.350;18.050;2022-11-14T14:56:53;12.27;;;7.78;;
51184;SDS011;37248;59.350;18.050;2022-11-14T14:59:20;15.38;;;8.32;;
51184;SDS011;37248;59.350;18.050;2022-11-14T15:01:46;13.27;;;7.60;;
51184;SDS011;37248;59.350;18.050;2022-11-14T15:04:12;12.53;;;7.33;;
51184;SDS011;37248;59.350;18.050;2022-11-14T15:06:38;17.40;;;8.23;;
51184;SDS011;37248;59.350;18.050;2022-11-14T15:09:08;11.00;;;7.20;;
51184;SDS011;37248;59.350;18.050;2022-11-14T15:11:35;15.07;;;8.07;;
51184;SDS011;37248;59.350;18.050;2022-11-14T15:14:00;12.70;;;7.38;;
51184;SDS011;37248;59.350;18.050;2022-11-14T15:16:26;18.63;;;7.67;;
51184;SDS011;37248;59.350;18.050;2022-11-14T15:18:52;11.55;;;8.02;;
51184;SDS011;37248;59.350;18.050;2022-11-14T15:24:24;11.50;;;8.07;;
51184;SDS011;37248;59.350;18.050;2022-11-14T15:26:43;12.95;;;7.80;;
51184;SDS011;37248;59.350;18.050;2022-11-14T15:29:18;11.10;;;7.78;;
51184;SDS011;37248;59.350;18.050;2022-11-14T15:31:48;13.10;;;7.72;;
51184;SDS011;37248;59.350;18.050;2022-11-14T15:39:49;25.92;;;8.55;;
51184;SDS011;37248;59.350;18.050;2022-11-14T15:44:40;20.97;;;9.00;;
51184;SDS011;37248;59.350;18.050;2022-11-14T15:47:11;11.45;;;7.60;;
51184;SDS011;37248;59.350;18.050;2022-11-14T15:49:37;13.97;;;8.03;;
51184;SDS011;37248;59.350;18.050;2022-11-14T15:52:03;18.80;;;8.47;;
51184;SDS011;37248;59.350;18.050;2022-11-14T15:56:56;14.20;;;7.50;;
51184;SDS011;37248;59.350;18.050;2022-11-14T15:59:21;11.85;;;7.70;;
51184;SDS011;37248;59.350;18.050;2022-11-14T16:01:55;12.60;;;8.13;;
51184;SDS011;37248;59.350;18.050;2022-11-14T16:04:22;10.38;;;7.97;;
51184;SDS011;37248;59.350;18.050;2022-11-14T16:06:48;12.85;;;8.95;;
51184;SDS011;37248;59.350;18.050;2022-11-14T16:09:17;12.43;;;9.00;;
51184;SDS011;37248;59.350;18.050;2022-11-14T16:11:43;12.00;;;9.10;;
51184;SDS011;37248;59.350;18.050;2022-11-14T16:14:08;11.15;;;9.75;;
51184;SDS011;37248;59.350;18.050;2022-11-14T16:16:33;10.30;;;8.40;;
51184;SDS011;37248;59.350;18.050;2022-11-14T16:18:58;11.00;;;7.63;;
51184;SDS011;37248;59.350;18.050;2022-11-14T16:21:24;9.37;;;6.77;;
51184;SDS011;37248;59.350;18.050;2022-11-14T16:23:49;20.30;;;6.80;;
51184;SDS011;37248;59.350;18.050;2022-11-14T16:26:14;9.93;;;5.87;;
51184;SDS011;37248;59.350;18.050;2022-11-14T16:28:39;9.63;;;5.63;;
51184;SDS011;37248;59.350;18.050;2022-11-14T16:31:11;7.57;;;5.13;;
51184;SDS011;37248;59.350;18.050;2022-11-14T16:33:36;10.00;;;5.25;;
51184;SDS011;37248;59.350;18.050;2022-11-14T16:36:02;9.30;;;5.30;;
51184;SDS011;37248;59.350;18.050;2022-11-14T16:38:27;15.43;;;5.03;;
51184;SDS011;37248;59.350;18.050;2022-11-14T16:40:52;20.17;;;5.77;;